Volborg, Montana
Current Conditions -  °F | °C
As of 5:53 AM on Tuesday 21 Oct 2014 (Local Time) from KMLS Reporting Station
Clear Clear  
Wind Chill: 42°   Ceiling: Unl
Heat Index: 42°   Visibility: 10mi
Dew Point: 37°   Wind: 3mph
Humidity: 82%   Direction: 70°ENE
Pressure: 29.73"   Gusts: NA
Location:  45.84°N, 105.68°W
Report Text: KMLS 211153Z AUTO 07003KT 10SM CLR 06/03 A2973 RMK AO2 SLP060 T00560028 10139 20050 56008
Loading
Personal Weather Stations






























Interactive Weather Map
Tropical Storm Tracking
New forecast layout! Learn more

10-Day Weather Forecast

Advertisements
Track Severe Weather on mobile